sensor_id;sensor_type;location;lat;lon;timestamp;temperature;humidity
74081;SHT31;62438;52.228;6.864;2023-02-02T00:00:34;5.75;89.69
74081;SHT31;62438;52.228;6.864;2023-02-02T00:02:34;5.78;89.60
74081;SHT31;62438;52.228;6.864;2023-02-02T00:04:35;5.75;89.80
74081;SHT31;62438;52.228;6.864;2023-02-02T00:06:36;5.76;90.00
74081;SHT31;62438;52.228;6.864;2023-02-02T00:08:36;5.78;89.69
74081;SHT31;62438;52.228;6.864;2023-02-02T00:10:38;5.78;89.71
74081;SHT31;62438;52.228;6.864;2023-02-02T00:12:39;5.80;89.77
74081;SHT31;62438;52.228;6.864;2023-02-02T00:14:39;5.78;89.98
74081;SHT31;62438;52.228;6.864;2023-02-02T00:17:00;5.80;90.27
74081;SHT31;62438;52.228;6.864;2023-02-02T00:19:10;5.76;90.53
74081;SHT31;62438;52.228;6.864;2023-02-02T00:21:11;5.79;91.09
74081;SHT31;62438;52.228;6.864;2023-02-02T00:23:11;5.80;91.14
74081;SHT31;62438;52.228;6.864;2023-02-02T00:25:12;5.78;91.40
74081;SHT31;62438;52.228;6.864;2023-02-02T00:27:12;5.68;91.95
74081;SHT31;62438;52.228;6.864;2023-02-02T00:29:20;5.59;91.99
74081;SHT31;62438;52.228;6.864;2023-02-02T00:31:21;5.51;92.61
74081;SHT31;62438;52.228;6.864;2023-02-02T00:33:22;5.47;92.47
74081;SHT31;62438;52.228;6.864;2023-02-02T00:35:22;5.44;92.92
74081;SHT31;62438;52.228;6.864;2023-02-02T00:37:23;5.38;93.09
74081;SHT31;62438;52.228;6.864;2023-02-02T00:39:24;5.35;93.22
74081;SHT31;62438;52.228;6.864;2023-02-02T00:41:27;5.40;93.32
74081;SHT31;62438;52.228;6.864;2023-02-02T00:43:28;5.31;93.34
74081;SHT31;62438;52.228;6.864;2023-02-02T00:45:29;5.21;93.90
74081;SHT31;62438;52.228;6.864;2023-02-02T00:47:30;5.21;93.89
74081;SHT31;62438;52.228;6.864;2023-02-02T00:49:30;5.23;94.12
74081;SHT31;62438;52.228;6.864;2023-02-02T00:51:31;5.16;94.41
74081;SHT31;62438;52.228;6.864;2023-02-02T00:53:31;5.16;94.55
74081;SHT31;62438;52.228;6.864;2023-02-02T00:55:32;5.13;94.94
74081;SHT31;62438;52.228;6.864;2023-02-02T00:57:32;5.11;95.18
74081;SHT31;62438;52.228;6.864;2023-02-02T00:59:33;5.16;95.17
74081;SHT31;62438;52.228;6.864;2023-02-02T01:01:33;5.07;95.61
74081;SHT31;62438;52.228;6.864;2023-02-02T01:03:34;5.09;95.59
74081;SHT31;62438;52.228;6.864;2023-02-02T01:05:34;5.07;95.96
74081;SHT31;62438;52.228;6.864;2023-02-02T01:07:35;5.13;95.99
74081;SHT31;62438;52.228;6.864;2023-02-02T01:09:35;5.04;96.29
74081;SHT31;62438;52.228;6.864;2023-02-02T01:11:36;5.10;96.54
74081;SHT31;62438;52.228;6.864;2023-02-02T01:13:36;5.06;96.79
74081;SHT31;62438;52.228;6.864;2023-02-02T01:15:37;5.16;96.88
74081;SHT31;62438;52.228;6.864;2023-02-02T01:17:38;5.26;96.79
74081;SHT31;62438;52.228;6.864;2023-02-02T01:19:38;5.27;96.91
74081;SHT31;62438;52.228;6.864;2023-02-02T01:21:40;5.32;96.98
74081;SHT31;62438;52.228;6.864;2023-02-02T01:23:41;5.34;96.97
74081;SHT31;62438;52.228;6.864;2023-02-02T01:25:41;5.27;97.32
74081;SHT31;62438;52.228;6.864;2023-02-02T01:27:41;5.34;97.43
74081;SHT31;62438;52.228;6.864;2023-02-02T01:29:42;5.35;97.49
74081;SHT31;62438;52.228;6.864;2023-02-02T01:31:42;5.37;97.81
74081;SHT31;62438;52.228;6.864;2023-02-02T01:33:44;5.48;97.49
74081;SHT31;62438;52.228;6.864;2023-02-02T01:35:53;5.56;97.40
74081;SHT31;62438;52.228;6.864;2023-02-02T01:37:53;5.62;97.17
74081;SHT31;62438;52.228;6.864;2023-02-02T01:39:54;5.58;97.45
74081;SHT31;62438;52.228;6.864;2023-02-02T01:41:54;5.59;97.77
74081;SHT31;62438;52.228;6.864;2023-02-02T01:44:03;5.59;97.74
74081;SHT31;62438;52.228;6.864;2023-02-02T01:46:04;5.70;97.63
74081;SHT31;62438;52.228;6.864;2023-02-02T01:48:04;5.66;97.64
74081;SHT31;62438;52.228;6.864;2023-02-02T01:50:07;5.68;97.87
74081;SHT31;62438;52.228;6.864;2023-02-02T01:52:09;5.59;98.02
74081;SHT31;62438;52.228;6.864;2023-02-02T01:54:15;5.75;97.97
74081;SHT31;62438;52.228;6.864;2023-02-02T01:56:23;5.92;97.60
74081;SHT31;62438;52.228;6.864;2023-02-02T01:58:28;5.98;97.36
74081;SHT31;62438;52.228;6.864;2023-02-02T02:00:30;5.96;97.54
74081;SHT31;62438;52.228;6.864;2023-02-02T02:02:31;6.09;97.35
74081;SHT31;62438;52.228;6.864;2023-02-02T02:04:31;6.06;97.32
74081;SHT31;62438;52.228;6.864;2023-02-02T02:06:32;6.17;97.05
74081;SHT31;62438;52.228;6.864;2023-02-02T02:08:39;6.23;96.92
74081;SHT31;62438;52.228;6.864;2023-02-02T02:10:41;6.26;96.85
74081;SHT31;62438;52.228;6.864;2023-02-02T02:12:41;6.27;96.71
74081;SHT31;62438;52.228;6.864;2023-02-02T02:14:45;6.26;96.94
74081;SHT31;62438;52.228;6.864;2023-02-02T02:32:47;6.31;96.83
74081;SHT31;62438;52.228;6.864;2023-02-02T02:39:46;6.41;96.42
74081;SHT31;62438;52.228;6.864;2023-02-02T02:41:52;6.45;96.07
74081;SHT31;62438;52.228;6.864;2023-02-02T02:44:00;6.45;96.13
74081;SHT31;62438;52.228;6.864;2023-02-02T02:46:01;6.41;96.25
74081;SHT31;62438;52.228;6.864;2023-02-02T02:48:02;6.44;96.14
74081;SHT31;62438;52.228;6.864;2023-02-02T02:50:04;6.41;96.16
74081;SHT31;62438;52.228;6.864;2023-02-02T02:52:04;6.31;96.47
74081;SHT31;62438;52.228;6.864;2023-02-02T02:54:05;6.28;96.64
74081;SHT31;62438;52.228;6.864;2023-02-02T02:58:13;6.37;96.44
74081;SHT31;62438;52.228;6.864;2023-02-02T03:04:30;6.42;96.28
74081;SHT31;62438;52.228;6.864;2023-02-02T03:06:47;6.42;96.18
74081;SHT31;62438;52.228;6.864;2023-02-02T03:09:20;6.45;96.10
74081;SHT31;62438;52.228;6.864;2023-02-02T03:11:22;6.42;96.19
74081;SHT31;62438;52.228;6.864;2023-02-02T03:13:22;6.47;96.12
74081;SHT31;62438;52.228;6.864;2023-02-02T03:15:23;6.49;95.74
74081;SHT31;62438;52.228;6.864;2023-02-02T03:17:26;6.44;95.98
74081;SHT31;62438;52.228;6.864;2023-02-02T03:19:26;6.51;95.98
74081;SHT31;62438;52.228;6.864;2023-02-02T03:21:27;6.55;95.82
74081;SHT31;62438;52.228;6.864;2023-02-02T03:23:27;6.54;95.69
74081;SHT31;62438;52.228;6.864;2023-02-02T03:25:28;6.57;95.48
74081;SHT31;62438;52.228;6.864;2023-02-02T03:27:28;6.49;95.68
74081;SHT31;62438;52.228;6.864;2023-02-02T03:29:29;6.51;95.68
74081;SHT31;62438;52.228;6.864;2023-02-02T03:31:29;6.54;95.77
74081;SHT31;62438;52.228;6.864;2023-02-02T03:33:32;6.54;95.51
74081;SHT31;62438;52.228;6.864;2023-02-02T03:35:34;6.52;95.78
74081;SHT31;62438;52.228;6.864;2023-02-02T03:37:35;6.54;95.91
74081;SHT31;62438;52.228;6.864;2023-02-02T03:39:35;6.52;96.21
74081;SHT31;62438;52.228;6.864;2023-02-02T03:41:36;6.47;96.66
74081;SHT31;62438;52.228;6.864;2023-02-02T03:43:36;6.48;96.92
74081;SHT31;62438;52.228;6.864;2023-02-02T03:45:36;6.37;97.34
74081;SHT31;62438;52.228;6.864;2023-02-02T03:47:39;6.36;97.79
74081;SHT31;62438;52.228;6.864;2023-02-02T03:49:40;6.30;98.25
74081;SHT31;62438;52.228;6.864;2023-02-02T03:51:40;6.26;98.79
74081;SHT31;62438;52.228;6.864;2023-02-02T03:53:42;6.24;98.59
74081;SHT31;62438;52.228;6.864;2023-02-02T03:55:48;6.27;98.63
74081;SHT31;62438;52.228;6.864;2023-02-02T03:57:49;6.19;99.11
74081;SHT31;62438;52.228;6.864;2023-02-02T03:59:49;6.17;99.17
74081;SHT31;62438;52.228;6.864;2023-02-02T04:01:50;6.09;99.86
74081;SHT31;62438;52.228;6.864;2023-02-02T04:03:50;6.10;99.77
74081;SHT31;62438;52.228;6.864;2023-02-02T04:05:50;6.10;99.75
74081;SHT31;62438;52.228;6.864;2023-02-02T04:07:51;6.07;99.96
74081;SHT31;62438;52.228;6.864;2023-02-02T04:09:51;6.03;99.99
74081;SHT31;62438;52.228;6.864;2023-02-02T04:11:52;6.03;99.99
74081;SHT31;62438;52.228;6.864;2023-02-02T04:13:53;6.06;99.99
74081;SHT31;62438;52.228;6.864;2023-02-02T04:16:00;6.09;99.99
74081;SHT31;62438;52.228;6.864;2023-02-02T04:18:00;6.06;99.99
74081;SHT31;62438;52.228;6.864;2023-02-02T04:20:05;6.06;99.99
74081;SHT31;62438;52.228;6.864;2023-02-02T04:22:05;6.06;99.99
74081;SHT31;62438;52.228;6.864;2023-02-02T04:24:09;6.09;99.99
74081;SHT31;62438;52.228;6.864;2023-02-02T04:26:10;6.07;99.99
74081;SHT31;62438;52.228;6.864;2023-02-02T04:28:11;6.07;99.99
74081;SHT31;62438;52.228;6.864;2023-02-02T04:30:11;6.09;99.99
74081;SHT31;62438;52.228;6.864;2023-02-02T04:32:14;6.13;99.99
74081;SHT31;62438;52.228;6.864;2023-02-02T04:34:15;6.09;99.99
74081;SHT31;62438;52.228;6.864;2023-02-02T04:36:15;6.07;99.99
74081;SHT31;62438;52.228;6.864;2023-02-02T04:38:15;6.07;99.99
74081;SHT31;62438;52.228;6.864;2023-02-02T04:40:16;6.03;99.99
74081;SHT31;62438;52.228;6.864;2023-02-02T04:42:16;6.06;99.99
74081;SHT31;62438;52.228;6.864;2023-02-02T04:44:17;6.02;99.99
74081;SHT31;62438;52.228;6.864;2023-02-02T04:46:18;6.05;99.99
74081;SHT31;62438;52.228;6.864;2023-02-02T04:48:19;6.03;99.99
74081;SHT31;62438;52.228;6.864;2023-02-02T04:50:19;6.05;99.99
74081;SHT31;62438;52.228;6.864;2023-02-02T04:52:20;6.02;99.99
74081;SHT31;62438;52.228;6.864;2023-02-02T04:54:20;5.99;99.99
74081;SHT31;62438;52.228;6.864;2023-02-02T04:56:21;6.03;99.99
74081;SHT31;62438;52.228;6.864;2023-02-02T04:58:21;6.03;99.99
74081;SHT31;62438;52.228;6.864;2023-02-02T05:00:22;6.03;99.99
74081;SHT31;62438;52.228;6.864;2023-02-02T05:02:23;6.07;99.99
74081;SHT31;62438;52.228;6.864;2023-02-02T05:04:24;6.07;99.99
74081;SHT31;62438;52.228;6.864;2023-02-02T05:06:25;6.03;99.99
74081;SHT31;62438;52.228;6.864;2023-02-02T05:08:25;6.07;99.99
74081;SHT31;62438;52.228;6.864;2023-02-02T05:10:26;6.10;99.99
74081;SHT31;62438;52.228;6.864;2023-02-02T05:12:26;6.05;99.99
74081;SHT31;62438;52.228;6.864;2023-02-02T05:14:26;6.07;99.99
74081;SHT31;62438;52.228;6.864;2023-02-02T05:16:27;6.07;99.99
74081;SHT31;62438;52.228;6.864;2023-02-02T05:18:27;6.10;99.99
74081;SHT31;62438;52.228;6.864;2023-02-02T05:20:30;6.10;99.99
74081;SHT31;62438;52.228;6.864;2023-02-02T05:22:30;6.14;99.99
74081;SHT31;62438;52.228;6.864;2023-02-02T05:24:31;6.13;99.99
74081;SHT31;62438;52.228;6.864;2023-02-02T05:26:31;6.11;99.99
74081;SHT31;62438;52.228;6.864;2023-02-02T05:28:32;6.16;99.99
74081;SHT31;62438;52.228;6.864;2023-02-02T05:30:37;6.20;99.99
74081;SHT31;62438;52.228;6.864;2023-02-02T05:32:37;6.20;99.99
74081;SHT31;62438;52.228;6.864;2023-02-02T05:34:38;6.23;99.99
74081;SHT31;62438;52.228;6.864;2023-02-02T05:36:38;6.17;99.99
74081;SHT31;62438;52.228;6.864;2023-02-02T05:38:38;6.21;99.99
74081;SHT31;62438;52.228;6.864;2023-02-02T05:40:39;6.27;99.99
74081;SHT31;62438;52.228;6.864;2023-02-02T05:42:39;6.34;99.99
74081;SHT31;62438;52.228;6.864;2023-02-02T05:44:40;6.40;99.99
74081;SHT31;62438;52.228;6.864;2023-02-02T05:46:40;6.37;99.99
74081;SHT31;62438;52.228;6.864;2023-02-02T05:48:41;6.37;99.99
74081;SHT31;62438;52.228;6.864;2023-02-02T05:50:45;6.36;99.99
74081;SHT31;62438;52.228;6.864;2023-02-02T05:52:48;6.40;99.99
74081;SHT31;62438;52.228;6.864;2023-02-02T05:54:49;6.41;99.99
74081;SHT31;62438;52.228;6.864;2023-02-02T05:56:51;6.45;99.99
74081;SHT31;62438;52.228;6.864;2023-02-02T05:58:51;6.47;99.99
74081;SHT31;62438;52.228;6.864;2023-02-02T06:00:52;6.55;99.99
74081;SHT31;62438;52.228;6.864;2023-02-02T06:02:53;6.58;99.99
74081;SHT31;62438;52.228;6.864;2023-02-02T06:04:53;6.63;99.99
74081;SHT31;62438;52.228;6.864;2023-02-02T06:06:53;6.64;99.99
74081;SHT31;62438;52.228;6.864;2023-02-02T06:08:54;6.69;99.99
74081;SHT31;62438;52.228;6.864;2023-02-02T06:10:54;6.68;99.99
74081;SHT31;62438;52.228;6.864;2023-02-02T06:12:55;6.71;99.99
74081;SHT31;62438;52.228;6.864;2023-02-02T06:14:55;6.74;99.99
74081;SHT31;62438;52.228;6.864;2023-02-02T06:16:56;6.82;99.99
74081;SHT31;62438;52.228;6.864;2023-02-02T06:18:56;6.82;99.99
74081;SHT31;62438;52.228;6.864;2023-02-02T06:20:57;6.79;99.99
74081;SHT31;62438;52.228;6.864;2023-02-02T06:22:58;6.84;99.99
74081;SHT31;62438;52.228;6.864;2023-02-02T06:24:58;6.82;99.99
74081;SHT31;62438;52.228;6.864;2023-02-02T06:26:58;6.84;99.99
74081;SHT31;62438;52.228;6.864;2023-02-02T06:28:59;6.85;99.99
74081;SHT31;62438;52.228;6.864;2023-02-02T06:31:04;6.85;99.99
74081;SHT31;62438;52.228;6.864;2023-02-02T06:33:04;6.84;99.99
74081;SHT31;62438;52.228;6.864;2023-02-02T06:35:07;6.85;99.99
74081;SHT31;62438;52.228;6.864;2023-02-02T06:37:07;6.86;99.99
74081;SHT31;62438;52.228;6.864;2023-02-02T06:39:08;6.86;99.99
74081;SHT31;62438;52.228;6.864;2023-02-02T06:41:08;6.82;99.99
74081;SHT31;62438;52.228;6.864;2023-02-02T06:43:09;6.89;99.99
74081;SHT31;62438;52.228;6.864;2023-02-02T06:45:14;6.89;99.99
74081;SHT31;62438;52.228;6.864;2023-02-02T06:47:14;6.88;99.99
74081;SHT31;62438;52.228;6.864;2023-02-02T06:49:15;6.93;99.99
74081;SHT31;62438;52.228;6.864;2023-02-02T06:51:17;6.88;99.99
74081;SHT31;62438;52.228;6.864;2023-02-02T06:53:18;6.89;99.99
74081;SHT31;62438;52.228;6.864;2023-02-02T06:55:22;6.88;99.99
74081;SHT31;62438;52.228;6.864;2023-02-02T06:57:22;6.89;99.99
74081;SHT31;62438;52.228;6.864;2023-02-02T06:59:22;6.89;99.99
74081;SHT31;62438;52.228;6.864;2023-02-02T07:01:23;6.91;99.99
74081;SHT31;62438;52.228;6.864;2023-02-02T07:03:23;6.86;99.99
74081;SHT31;62438;52.228;6.864;2023-02-02T07:05:26;6.92;99.99
74081;SHT31;62438;52.228;6.864;2023-02-02T07:07:30;6.88;99.99
74081;SHT31;62438;52.228;6.864;2023-02-02T07:09:33;6.92;99.99
74081;SHT31;62438;52.228;6.864;2023-02-02T07:11:34;6.96;99.99
74081;SHT31;62438;52.228;6.864;2023-02-02T07:13:35;6.95;99.99
74081;SHT31;62438;52.228;6.864;2023-02-02T07:15:39;6.86;99.99
74081;SHT31;62438;52.228;6.864;2023-02-02T07:17:39;6.86;99.99
74081;SHT31;62438;52.228;6.864;2023-02-02T07:19:40;6.91;99.99
74081;SHT31;62438;52.228;6.864;2023-02-02T07:21:41;6.89;99.99
74081;SHT31;62438;52.228;6.864;2023-02-02T07:23:41;6.93;99.99
74081;SHT31;62438;52.228;6.864;2023-02-02T07:25:41;6.88;99.99
74081;SHT31;62438;52.228;6.864;2023-02-02T07:27:42;6.92;99.99
74081;SHT31;62438;52.228;6.864;2023-02-02T07:29:43;6.95;99.99
74081;SHT31;62438;52.228;6.864;2023-02-02T07:31:43;6.95;99.99
74081;SHT31;62438;52.228;6.864;2023-02-02T07:33:45;6.95;99.99
74081;SHT31;62438;52.228;6.864;2023-02-02T07:35:46;6.92;99.99
74081;SHT31;62438;52.228;6.864;2023-02-02T07:37:53;6.92;99.99
74081;SHT31;62438;52.228;6.864;2023-02-02T07:39:54;6.95;99.99
74081;SHT31;62438;52.228;6.864;2023-02-02T07:41:54;6.95;99.99
74081;SHT31;62438;52.228;6.864;2023-02-02T07:43:54;6.93;99.99
74081;SHT31;62438;52.228;6.864;2023-02-02T07:45:59;6.95;99.99
74081;SHT31;62438;52.228;6.864;2023-02-02T07:48:02;6.96;99.99
74081;SHT31;62438;52.228;6.864;2023-02-02T07:50:02;6.91;99.99
74081;SHT31;62438;52.228;6.864;2023-02-02T07:52:03;6.86;99.99
74081;SHT31;62438;52.228;6.864;2023-02-02T07:54:03;6.96;99.99
74081;SHT31;62438;52.228;6.864;2023-02-02T07:58:10;6.99;99.99
74081;SHT31;62438;52.228;6.864;2023-02-02T08:00:11;6.93;99.99
74081;SHT31;62438;52.228;6.864;2023-02-02T08:02:12;6.95;99.99
74081;SHT31;62438;52.228;6.864;2023-02-02T08:04:12;6.99;99.99
74081;SHT31;62438;52.228;6.864;2023-02-02T08:06:42;6.84;99.99
74081;SHT31;62438;52.228;6.864;2023-02-02T08:08:42;6.92;99.99
74081;SHT31;62438;52.228;6.864;2023-02-02T08:10:47;6.78;99.99
74081;SHT31;62438;52.228;6.864;2023-02-02T08:12:48;6.65;99.99
74081;SHT31;62438;52.228;6.864;2023-02-02T08:14:48;6.48;99.99
74081;SHT31;62438;52.228;6.864;2023-02-02T08:16:49;6.47;99.99
74081;SHT31;62438;52.228;6.864;2023-02-02T08:18:49;6.45;99.99
74081;SHT31;62438;52.228;6.864;2023-02-02T08:20:50;6.42;99.99
74081;SHT31;62438;52.228;6.864;2023-02-02T08:22:51;6.44;99.99
74081;SHT31;62438;52.228;6.864;2023-02-02T08:24:52;6.40;99.99
74081;SHT31;62438;52.228;6.864;2023-02-02T08:26:52;6.34;99.99
74081;SHT31;62438;52.228;6.864;2023-02-02T08:28:55;6.34;99.99
74081;SHT31;62438;52.228;6.864;2023-02-02T08:30:56;6.37;99.99
74081;SHT31;62438;52.228;6.864;2023-02-02T08:32:56;6.31;99.99
74081;SHT31;62438;52.228;6.864;2023-02-02T08:34:56;6.49;99.99
74081;SHT31;62438;52.228;6.864;2023-02-02T08:36:57;6.38;99.99
74081;SHT31;62438;52.228;6.864;2023-02-02T08:39:02;6.34;99.99
74081;SHT31;62438;52.228;6.864;2023-02-02T08:41:04;6.27;99.99
74081;SHT31;62438;52.228;6.864;2023-02-02T08:43:05;6.33;99.99
74081;SHT31;62438;52.228;6.864;2023-02-02T08:45:06;6.30;99.99
74081;SHT31;62438;52.228;6.864;2023-02-02T08:47:06;6.28;99.99
74081;SHT31;62438;52.228;6.864;2023-02-02T08:49:10;6.21;99.99
74081;SHT31;62438;52.228;6.864;2023-02-02T08:51:13;6.21;99.99
74081;SHT31;62438;52.228;6.864;2023-02-02T08:53:14;6.24;99.99
74081;SHT31;62438;52.228;6.864;2023-02-02T08:55:15;6.26;99.99
74081;SHT31;62438;52.228;6.864;2023-02-02T08:57:15;6.23;99.99
74081;SHT31;62438;52.228;6.864;2023-02-02T08:59:16;6.21;99.99
74081;SHT31;62438;52.228;6.864;2023-02-02T09:01:25;6.28;99.99
74081;SHT31;62438;52.228;6.864;2023-02-02T09:03:26;6.36;99.99
74081;SHT31;62438;52.228;6.864;2023-02-02T09:05:26;6.36;99.99
74081;SHT31;62438;52.228;6.864;2023-02-02T09:07:26;6.33;99.99
74081;SHT31;62438;52.228;6.864;2023-02-02T09:09:27;6.37;99.99
74081;SHT31;62438;52.228;6.864;2023-02-02T09:11:27;6.34;99.99
74081;SHT31;62438;52.228;6.864;2023-02-02T09:13:28;6.37;99.99
74081;SHT31;62438;52.228;6.864;2023-02-02T09:15:29;6.38;99.99
74081;SHT31;62438;52.228;6.864;2023-02-02T09:17:29;6.42;99.99
74081;SHT31;62438;52.228;6.864;2023-02-02T09:19:30;6.44;99.99
74081;SHT31;62438;52.228;6.864;2023-02-02T09:21:30;6.51;99.99
74081;SHT31;62438;52.228;6.864;2023-02-02T09:23:37;6.55;99.99
74081;SHT31;62438;52.228;6.864;2023-02-02T09:25:38;6.55;99.99
74081;SHT31;62438;52.228;6.864;2023-02-02T09:27:38;6.64;99.99
74081;SHT31;62438;52.228;6.864;2023-02-02T09:29:40;6.68;99.99
74081;SHT31;62438;52.228;6.864;2023-02-02T09:31:40;6.69;99.99
74081;SHT31;62438;52.228;6.864;2023-02-02T09:33:42;6.78;99.99
74081;SHT31;62438;52.228;6.864;2023-02-02T09:35:42;6.85;99.99
74081;SHT31;62438;52.228;6.864;2023-02-02T09:37:43;6.92;99.99
74081;SHT31;62438;52.228;6.864;2023-02-02T09:39:44;6.98;99.99
74081;SHT31;62438;52.228;6.864;2023-02-02T09:42:06;7.00;99.99
74081;SHT31;62438;52.228;6.864;2023-02-02T09:49:00;7.23;99.99
74081;SHT31;62438;52.228;6.864;2023-02-02T09:51:12;7.26;99.99
74081;SHT31;62438;52.228;6.864;2023-02-02T09:55:47;7.27;99.99
74081;SHT31;62438;52.228;6.864;2023-02-02T09:57:56;7.31;99.99
74081;SHT31;62438;52.228;6.864;2023-02-02T09:59:58;7.31;99.99
74081;SHT31;62438;52.228;6.864;2023-02-02T10:02:05;7.36;99.99
74081;SHT31;62438;52.228;6.864;2023-02-02T10:04:31;7.34;99.99
74081;SHT31;62438;52.228;6.864;2023-02-02T10:08:45;7.34;99.99
74081;SHT31;62438;52.228;6.864;2023-02-02T10:10:49;7.34;99.99
74081;SHT31;62438;52.228;6.864;2023-02-02T10:12:58;7.36;99.99
74081;SHT31;62438;52.228;6.864;2023-02-02T10:19:37;7.37;99.99
74081;SHT31;62438;52.228;6.864;2023-02-02T10:21:56;7.37;99.99
74081;SHT31;62438;52.228;6.864;2023-02-02T10:23:58;7.37;99.99
74081;SHT31;62438;52.228;6.864;2023-02-02T10:28:16;7.43;99.99
74081;SHT31;62438;52.228;6.864;2023-02-02T10:30:19;7.42;99.99
74081;SHT31;62438;52.228;6.864;2023-02-02T10:32:24;7.42;99.99
74081;SHT31;62438;52.228;6.864;2023-02-02T10:42:24;7.43;99.99
74081;SHT31;62438;52.228;6.864;2023-02-02T10:44:38;7.43;99.99
74081;SHT31;62438;52.228;6.864;2023-02-02T10:46:52;7.44;99.99
74081;SHT31;62438;52.228;6.864;2023-02-02T10:49:30;7.40;99.99
74081;SHT31;62438;52.228;6.864;2023-02-02T10:51:31;7.47;99.99
74081;SHT31;62438;52.228;6.864;2023-02-02T10:53:32;7.47;99.99
74081;SHT31;62438;52.228;6.864;2023-02-02T10:55:40;7.50;99.99
74081;SHT31;62438;52.228;6.864;2023-02-02T10:57:45;7.53;99.99
74081;SHT31;62438;52.228;6.864;2023-02-02T11:00:01;7.53;99.99
74081;SHT31;62438;52.228;6.864;2023-02-02T11:02:10;7.58;99.99
74081;SHT31;62438;52.228;6.864;2023-02-02T11:04:10;7.56;99.99
74081;SHT31;62438;52.228;6.864;2023-02-02T11:06:29;7.53;99.99
74081;SHT31;62438;52.228;6.864;2023-02-02T11:08:50;7.54;99.99
74081;SHT31;62438;52.228;6.864;2023-02-02T11:10:57;7.53;99.99
74081;SHT31;62438;52.228;6.864;2023-02-02T11:12:59;7.54;99.99
74081;SHT31;62438;52.228;6.864;2023-02-02T11:15:21;7.51;99.99
74081;SHT31;62438;52.228;6.864;2023-02-02T11:17:24;7.48;99.99
74081;SHT31;62438;52.228;6.864;2023-02-02T11:19:27;7.54;99.99
74081;SHT31;62438;52.228;6.864;2023-02-02T11:21:31;7.51;99.99
74081;SHT31;62438;52.228;6.864;2023-02-02T11:23:32;7.51;99.99
74081;SHT31;62438;52.228;6.864;2023-02-02T11:25:37;7.53;99.99
74081;SHT31;62438;52.228;6.864;2023-02-02T11:27:40;7.53;99.99
74081;SHT31;62438;52.228;6.864;2023-02-02T11:29:45;7.53;99.99
74081;SHT31;62438;52.228;6.864;2023-02-02T11:31:46;7.56;99.99
74081;SHT31;62438;52.228;6.864;2023-02-02T11:33:49;7.57;99.99
74081;SHT31;62438;52.228;6.864;2023-02-02T11:35:58;7.58;99.99
74081;SHT31;62438;52.228;6.864;2023-02-02T11:38:14;7.56;99.99
74081;SHT31;62438;52.228;6.864;2023-02-02T11:42:19;7.53;99.99
74081;SHT31;62438;52.228;6.864;2023-02-02T11:44:24;7.54;99.99
74081;SHT31;62438;52.228;6.864;2023-02-02T11:46:28;7.58;99.99
74081;SHT31;62438;52.228;6.864;2023-02-02T11:48:35;7.60;99.99
74081;SHT31;62438;52.228;6.864;2023-02-02T11:50:35;7.57;99.99
74081;SHT31;62438;52.228;6.864;2023-02-02T11:52:36;7.57;99.99
74081;SHT31;62438;52.228;6.864;2023-02-02T11:54:45;7.57;99.99
74081;SHT31;62438;52.228;6.864;2023-02-02T11:56:51;7.57;99.99
74081;SHT31;62438;52.228;6.864;2023-02-02T11:58:54;7.56;99.99
74081;SHT31;62438;52.228;6.864;2023-02-02T12:00:59;7.53;99.99
74081;SHT31;62438;52.228;6.864;2023-02-02T12:03:00;7.56;99.99
74081;SHT31;62438;52.228;6.864;2023-02-02T12:07:31;7.56;99.99
74081;SHT31;62438;52.228;6.864;2023-02-02T12:09:31;7.57;99.99
74081;SHT31;62438;52.228;6.864;2023-02-02T12:11:43;7.57;99.99
74081;SHT31;62438;52.228;6.864;2023-02-02T12:28:32;7.63;99.99
74081;SHT31;62438;52.228;6.864;2023-02-02T12:34:41;7.65;99.99
74081;SHT31;62438;52.228;6.864;2023-02-02T12:44:07;7.65;99.99
74081;SHT31;62438;52.228;6.864;2023-02-02T13:07:39;7.68;99.99
74081;SHT31;62438;52.228;6.864;2023-02-02T13:12:09;7.65;99.99
74081;SHT31;62438;52.228;6.864;2023-02-02T13:14:23;7.67;99.99
74081;SHT31;62438;52.228;6.864;2023-02-02T13:16:24;7.68;99.99
74081;SHT31;62438;52.228;6.864;2023-02-02T13:18:30;7.65;99.99
74081;SHT31;62438;52.228;6.864;2023-02-02T13:20:37;7.64;99.99
74081;SHT31;62438;52.228;6.864;2023-02-02T13:22:43;7.67;99.99
74081;SHT31;62438;52.228;6.864;2023-02-02T13:24:46;7.70;99.99
74081;SHT31;62438;52.228;6.864;2023-02-02T13:26:48;7.68;99.99
74081;SHT31;62438;52.228;6.864;2023-02-02T13:31:22;7.65;99.99
74081;SHT31;62438;52.228;6.864;2023-02-02T13:33:33;7.65;99.99
74081;SHT31;62438;52.228;6.864;2023-02-02T13:35:39;7.61;99.99
74081;SHT31;62438;52.228;6.864;2023-02-02T13:37:50;7.64;99.99
74081;SHT31;62438;52.228;6.864;2023-02-02T13:39:57;7.63;99.99
74081;SHT31;62438;52.228;6.864;2023-02-02T13:41:59;7.60;99.99
74081;SHT31;62438;52.228;6.864;2023-02-02T13:44:13;7.60;99.99
74081;SHT31;62438;52.228;6.864;2023-02-02T13:46:41;7.61;99.99
74081;SHT31;62438;52.228;6.864;2023-02-02T13:51:23;7.61;99.99
74081;SHT31;62438;52.228;6.864;2023-02-02T13:58:59;7.60;99.99
74081;SHT31;62438;52.228;6.864;2023-02-02T14:01:07;7.58;99.99
74081;SHT31;62438;52.228;6.864;2023-02-02T14:03:35;7.60;99.99
74081;SHT31;62438;52.228;6.864;2023-02-02T14:05:40;7.54;99.99
74081;SHT31;62438;52.228;6.864;2023-02-02T14:07:41;7.60;99.99
74081;SHT31;62438;52.228;6.864;2023-02-02T14:09:47;7.60;99.99
74081;SHT31;62438;52.228;6.864;2023-02-02T14:11:57;7.56;99.99
74081;SHT31;62438;52.228;6.864;2023-02-02T14:14:08;7.57;99.99
74081;SHT31;62438;52.228;6.864;2023-02-02T14:18:50;7.58;99.99
74081;SHT31;62438;52.228;6.864;2023-02-02T14:20:51;7.58;99.99
74081;SHT31;62438;52.228;6.864;2023-02-02T14:22:51;7.63;99.99
74081;SHT31;62438;52.228;6.864;2023-02-02T14:24:53;7.63;99.99
74081;SHT31;62438;52.228;6.864;2023-02-02T14:26:56;7.63;99.99
74081;SHT31;62438;52.228;6.864;2023-02-02T14:28:56;7.61;99.99
74081;SHT31;62438;52.228;6.864;2023-02-02T14:31:50;7.60;99.99
74081;SHT31;62438;52.228;6.864;2023-02-02T14:36:30;7.56;99.99
74081;SHT31;62438;52.228;6.864;2023-02-02T14:39:31;7.57;99.99
74081;SHT31;62438;52.228;6.864;2023-02-02T14:44:24;7.64;99.99
74081;SHT31;62438;52.228;6.864;2023-02-02T14:46:50;7.60;99.99
74081;SHT31;62438;52.228;6.864;2023-02-02T14:50:59;7.57;99.99
74081;SHT31;62438;52.228;6.864;2023-02-02T14:55:19;7.58;99.99
74081;SHT31;62438;52.228;6.864;2023-02-02T14:57:26;7.58;99.99
74081;SHT31;62438;52.228;6.864;2023-02-02T14:59:36;7.63;99.99
74081;SHT31;62438;52.228;6.864;2023-02-02T15:02:00;7.60;99.99
74081;SHT31;62438;52.228;6.864;2023-02-02T15:06:32;7.60;99.99
74081;SHT31;62438;52.228;6.864;2023-02-02T15:08:33;7.58;99.99
74081;SHT31;62438;52.228;6.864;2023-02-02T15:13:02;7.51;99.99
74081;SHT31;62438;52.228;6.864;2023-02-02T15:15:18;7.54;99.99
74081;SHT31;62438;52.228;6.864;2023-02-02T15:19:41;7.48;99.99
74081;SHT31;62438;52.228;6.864;2023-02-02T15:21:45;7.53;99.99
74081;SHT31;62438;52.228;6.864;2023-02-02T15:23:47;7.50;99.99
74081;SHT31;62438;52.228;6.864;2023-02-02T15:28:01;7.48;99.99
74081;SHT31;62438;52.228;6.864;2023-02-02T15:30:06;7.48;99.99
74081;SHT31;62438;52.228;6.864;2023-02-02T15:32:17;7.51;99.99